createdAt,value
2018-09-04T00:01:09.079Z,69.13
2018-09-04T00:03:37.619Z,62.20
2018-09-04T00:06:06.731Z,74.33
2018-09-04T00:08:35.225Z,68.57
2018-09-04T00:11:04.019Z,79.60
2018-09-04T00:13:32.613Z,74.37
2018-09-04T00:16:05.917Z,87.13
2018-09-04T00:18:34.425Z,85.92
2018-09-04T00:21:02.938Z,91.53
2018-09-04T00:23:31.449Z,96.25
2018-09-04T00:25:59.947Z,88.57
2018-09-04T00:28:28.448Z,94.40
2018-09-04T00:30:57.747Z,92.43
2018-09-04T00:33:26.278Z,97.63
2018-09-04T00:35:54.791Z,98.53
2018-09-04T00:38:23.306Z,101.50
2018-09-04T00:40:51.787Z,111.93
2018-09-04T00:43:20.339Z,106.70
2018-09-04T00:45:48.883Z,98.70
2018-09-04T00:48:17.417Z,108.70
2018-09-04T00:50:45.913Z,109.50
2018-09-04T00:58:10.832Z,96.07
2018-09-04T01:00:39.770Z,101.47
2018-09-04T01:03:08.295Z,99.93
2018-09-04T01:05:36.849Z,96.47
2018-09-04T01:08:05.369Z,112.80
2018-09-04T01:10:33.844Z,102.65
2018-09-04T01:13:02.385Z,103.23
2018-09-04T01:15:30.902Z,101.33
2018-09-04T01:17:59.431Z,107.23
2018-09-04T01:20:28.282Z,112.43
2018-09-04T01:22:56.774Z,97.97
2018-09-04T01:25:25.321Z,97.07
2018-09-04T01:27:54.603Z,101.10
2018-09-04T01:30:23.181Z,98.93
2018-09-04T01:32:51.746Z,100.93
2018-09-04T01:35:20.325Z,96.47
2018-09-04T01:37:48.810Z,117.50
2018-09-04T01:40:17.815Z,114.65
2018-09-04T01:42:46.659Z,102.93
2018-09-04T01:50:15.210Z,101.27
2018-09-04T01:52:43.746Z,110.40
2018-09-04T01:55:12.840Z,108.40
2018-09-04T01:57:42.078Z,113.87
2018-09-04T02:00:11.339Z,100.00
2018-09-04T02:02:39.939Z,106.47
2018-09-04T02:05:09.018Z,113.60
2018-09-04T02:07:37.531Z,111.45
2018-09-04T02:10:06.457Z,102.80
2018-09-04T02:12:34.969Z,114.17
2018-09-04T02:15:03.543Z,123.90
2018-09-04T02:17:32.042Z,180.27
2018-09-04T02:20:00.552Z,123.83
2018-09-04T02:22:29.110Z,122.55
2018-09-04T02:24:57.595Z,129.63
2018-09-04T02:27:26.578Z,104.47
2018-09-04T02:29:55.078Z,74.07
2018-09-04T02:32:23.558Z,90.80
2018-09-04T02:34:52.082Z,84.93
2018-09-04T02:37:20.558Z,98.07
2018-09-04T02:39:49.042Z,95.80
2018-09-04T02:42:17.622Z,84.00
2018-09-04T02:44:46.098Z,84.40
2018-09-04T02:52:10.048Z,82.63
2018-09-04T02:54:38.737Z,70.85
2018-09-04T02:57:07.673Z,72.23
2018-09-04T02:59:36.184Z,77.67
2018-09-04T03:02:04.726Z,76.73
2018-09-04T03:04:34.019Z,73.00
2018-09-04T03:07:02.918Z,74.10
2018-09-04T03:09:31.411Z,81.32
2018-09-04T03:11:59.883Z,69.40
2018-09-04T03:14:28.621Z,79.43
2018-09-04T03:16:57.087Z,73.50
2018-09-04T03:19:25.553Z,64.90
2018-09-04T03:21:54.079Z,84.33
2018-09-04T03:24:22.563Z,73.87
2018-09-04T03:26:51.034Z,76.70
2018-09-04T03:29:19.534Z,74.92
2018-09-04T03:31:48.014Z,72.23
2018-09-04T03:34:17.410Z,75.30
2018-09-04T03:36:46.594Z,68.43
2018-09-04T03:44:15.016Z,76.77
2018-09-04T03:46:43.494Z,74.47
2018-09-04T03:49:11.967Z,76.27
2018-09-04T03:51:40.534Z,75.90
2018-09-04T03:54:09.034Z,77.53
2018-09-04T03:56:37.518Z,75.10
2018-09-04T03:59:06.916Z,81.00
2018-09-04T04:01:35.436Z,76.62
2018-09-04T04:04:03.910Z,79.80
2018-09-04T04:06:32.438Z,70.42
2018-09-04T04:09:00.926Z,77.00
2018-09-04T04:11:29.419Z,76.92
2018-09-04T04:13:57.974Z,74.83
2018-09-04T04:16:26.461Z,78.45
2018-09-04T04:18:54.958Z,83.43
2018-09-04T04:21:23.840Z,91.05
2018-09-04T04:23:52.423Z,92.77
2018-09-04T04:26:20.850Z,99.58
2018-09-04T04:28:49.445Z,96.00
2018-09-04T04:31:17.953Z,99.90
2018-09-04T04:33:46.433Z,86.97
2018-09-04T04:41:11.715Z,91.40
2018-09-04T04:43:40.204Z,78.63
2018-09-04T04:46:08.685Z,70.73
2018-09-04T04:48:37.195Z,78.00
2018-09-04T04:51:06.034Z,76.47
2018-09-04T04:53:34.510Z,78.17
2018-09-04T04:56:03.038Z,83.50
2018-09-04T04:58:31.541Z,82.83
2018-09-04T05:01:01.894Z,81.20
2018-09-04T05:03:30.882Z,85.80
2018-09-04T05:05:59.369Z,93.83
2018-09-04T05:08:27.848Z,98.72
2018-09-04T05:10:56.809Z,103.20
2018-09-04T05:13:25.324Z,110.50
2018-09-04T05:15:53.826Z,90.67
2018-09-04T05:18:22.387Z,93.10
2018-09-04T05:20:50.917Z,89.37
2018-09-04T05:23:19.382Z,89.92
2018-09-04T05:25:48.383Z,88.83
2018-09-04T05:28:17.444Z,98.60
2018-09-04T05:30:46.516Z,95.53
2018-09-04T05:38:15.173Z,77.20
2018-09-04T05:40:43.746Z,93.47
2018-09-04T05:43:15.119Z,78.50
2018-09-04T05:45:44.613Z,74.30
2018-09-04T05:48:14.821Z,86.50
2018-09-04T05:50:43.366Z,72.00
2018-09-04T05:53:11.962Z,80.70
2018-09-04T05:55:40.490Z,77.70
2018-09-04T05:58:08.966Z,71.87
2018-09-04T06:00:42.646Z,66.63
2018-09-04T06:03:12.262Z,67.27
2018-09-04T06:05:40.729Z,64.30
2018-09-04T06:08:09.717Z,65.07
2018-09-04T06:10:38.237Z,68.67
2018-09-04T06:13:06.749Z,57.80
2018-09-04T06:15:35.280Z,59.37
2018-09-04T06:18:03.783Z,58.30
2018-09-04T06:20:32.277Z,61.40
2018-09-04T06:23:00.846Z,61.87
2018-09-04T06:25:29.323Z,57.87
2018-09-04T06:28:04.342Z,60.73
2018-09-04T06:30:32.910Z,59.00
2018-09-04T06:33:01.415Z,64.83
2018-09-04T06:35:29.926Z,56.80
2018-09-04T06:37:58.435Z,54.40
2018-09-04T06:40:26.954Z,60.33
2018-09-04T06:42:55.480Z,58.97
2018-09-04T06:45:23.978Z,51.77
2018-09-04T06:47:52.454Z,59.40
2018-09-04T06:50:21.194Z,68.05
2018-09-04T06:52:49.698Z,61.00
2018-09-04T06:55:19.971Z,69.97
2018-09-04T06:57:48.481Z,59.60
2018-09-04T07:00:17.407Z,58.30
2018-09-04T07:02:46.392Z,54.27
2018-09-04T07:10:15.496Z,57.60
2018-09-04T07:12:44.003Z,61.20
2018-09-04T07:15:12.498Z,56.40
2018-09-04T07:17:41.045Z,58.20
2018-09-04T07:20:09.567Z,58.20
2018-09-04T07:22:38.133Z,57.50
2018-09-04T07:25:07.698Z,54.63
2018-09-04T07:27:36.635Z,50.20
2018-09-04T07:30:05.623Z,54.67
2018-09-04T07:32:34.739Z,59.53
2018-09-04T07:35:03.621Z,57.93
2018-09-04T07:37:32.098Z,61.13
2018-09-04T07:40:00.627Z,52.77
2018-09-04T07:42:30.341Z,57.20
2018-09-04T07:44:58.823Z,56.37
2018-09-04T07:47:27.792Z,53.57
2018-09-04T07:49:56.735Z,60.27
2018-09-04T07:52:25.271Z,65.65
2018-09-04T07:54:54.128Z,66.57
2018-09-04T07:57:22.638Z,59.23
2018-09-04T07:59:51.391Z,68.33
2018-09-04T08:02:19.931Z,74.20
2018-09-04T08:04:48.406Z,73.22
2018-09-04T08:07:18.266Z,75.63
2018-09-04T08:09:46.956Z,64.23
2018-09-04T08:17:11.831Z,86.10
2018-09-04T08:19:40.342Z,67.00
2018-09-04T08:22:08.854Z,62.20
2018-09-04T08:24:37.381Z,67.03
2018-09-04T08:27:05.915Z,72.23
2018-09-04T08:29:34.402Z,55.78
2018-09-04T08:32:02.934Z,54.17
2018-09-04T08:34:31.415Z,62.17
2018-09-04T08:36:59.906Z,52.47
2018-09-04T08:39:28.947Z,56.77
2018-09-04T08:41:57.838Z,50.80
2018-09-04T08:44:26.322Z,50.70
2018-09-04T08:46:54.875Z,49.43
2018-09-04T08:49:24.901Z,46.63
2018-09-04T08:51:53.374Z,44.77
2018-09-04T08:54:21.913Z,44.83
2018-09-04T08:56:50.390Z,48.23
2018-09-04T08:59:18.931Z,44.10
2018-09-04T09:01:48.041Z,42.03
2018-09-04T09:04:17.434Z,42.65
2018-09-04T09:06:45.918Z,37.93
2018-09-04T09:14:15.707Z,39.47
2018-09-04T09:16:44.242Z,40.80
2018-09-04T09:19:12.741Z,37.70
2018-09-04T09:21:41.715Z,37.80
2018-09-04T09:24:10.257Z,35.80
2018-09-04T09:26:38.782Z,34.73
2018-09-04T09:29:08.102Z,33.30
2018-09-04T09:31:37.916Z,32.70
2018-09-04T09:34:07.196Z,33.63
2018-09-04T09:36:35.804Z,35.63
2018-09-04T09:39:05.053Z,30.67
2018-09-04T09:41:33.579Z,36.60
2018-09-04T09:44:02.761Z,33.57
2018-09-04T09:46:31.339Z,38.40
2018-09-04T09:48:59.826Z,35.70
2018-09-04T09:51:28.351Z,35.00
2018-09-04T09:53:56.854Z,30.20
2018-09-04T09:56:25.475Z,31.17
2018-09-04T09:58:54.745Z,30.57
2018-09-04T10:01:28.609Z,30.80
2018-09-04T10:04:02.989Z,27.37
2018-09-04T10:06:31.833Z,30.73
2018-09-04T10:09:00.307Z,24.20
2018-09-04T10:11:29.598Z,29.37
2018-09-04T10:13:58.117Z,18.97
2018-09-04T10:16:27.958Z,18.33
2018-09-04T10:18:56.534Z,15.28
2018-09-04T10:21:25.075Z,15.50
2018-09-04T10:23:53.546Z,16.47
2018-09-04T10:26:22.593Z,14.30
2018-09-04T10:28:51.069Z,13.23
2018-09-04T10:31:19.719Z,15.63
2018-09-04T10:33:48.198Z,13.50
2018-09-04T10:36:17.407Z,17.10
2018-09-04T10:38:45.882Z,15.00
2018-09-04T10:51:08.713Z,26.27
2018-09-04T10:53:37.201Z,30.93
2018-09-04T10:56:05.718Z,28.47
2018-09-04T10:58:34.293Z,30.32
2018-09-04T11:01:02.859Z,29.40
2018-09-04T11:03:31.734Z,25.80
2018-09-04T11:06:01.124Z,33.40
2018-09-04T11:08:30.032Z,29.77
2018-09-04T11:10:58.521Z,31.53
2018-09-04T11:13:29.254Z,32.57
2018-09-04T11:15:57.807Z,35.63
2018-09-04T11:18:26.333Z,29.13
2018-09-04T11:20:54.890Z,34.30
2018-09-04T11:23:23.422Z,39.90
2018-09-04T11:25:51.918Z,34.30
2018-09-04T11:28:20.453Z,36.63
2018-09-04T11:30:49.050Z,34.80
2018-09-04T11:33:17.486Z,33.25
2018-09-04T11:35:46.802Z,41.53
2018-09-04T11:43:14.742Z,39.80
2018-09-04T11:45:43.734Z,39.80
2018-09-04T11:48:19.417Z,47.10
2018-09-04T11:50:48.650Z,39.03
2018-09-04T11:53:18.411Z,38.53
2018-09-04T11:55:48.769Z,44.40
2018-09-04T11:58:17.458Z,38.57
2018-09-04T12:00:47.415Z,39.80
2018-09-04T12:03:17.694Z,41.58
2018-09-04T12:05:46.239Z,37.50
2018-09-04T12:13:11.413Z,39.30
2018-09-04T12:15:41.145Z,41.57
2018-09-04T12:18:10.504Z,40.27
2018-09-04T12:20:41.852Z,40.37
2018-09-04T12:23:10.466Z,42.97
2018-09-04T12:25:40.315Z,39.67
2018-09-04T12:28:08.858Z,31.87
2018-09-04T12:30:37.378Z,43.23
2018-09-04T12:33:06.024Z,33.53
2018-09-04T12:35:35.502Z,43.85
2018-09-04T12:38:04.567Z,43.13
2018-09-04T12:40:33.590Z,44.27
2018-09-04T12:43:03.399Z,39.30
2018-09-04T12:45:37.298Z,42.97
2018-09-04T12:48:06.808Z,40.23
2018-09-04T12:50:35.772Z,41.47
2018-09-04T12:53:04.358Z,42.80
2018-09-04T12:55:33.589Z,38.83
2018-09-04T12:58:02.198Z,40.37
2018-09-04T13:00:30.718Z,38.13
2018-09-04T13:02:59.238Z,38.40
2018-09-04T13:05:27.747Z,36.00
2018-09-04T13:07:56.262Z,36.20
2018-09-04T13:10:24.800Z,32.17
2018-09-04T13:12:54.247Z,33.93
2018-09-04T13:15:23.793Z,34.90
2018-09-04T13:17:53.295Z,37.67
2018-09-04T13:20:21.790Z,34.37
2018-09-04T13:22:50.317Z,32.23
2018-09-04T13:25:18.831Z,30.47
2018-09-04T13:27:47.318Z,35.30
2018-09-04T13:35:11.757Z,38.30
2018-09-04T13:37:40.247Z,34.97
2018-09-04T13:40:08.820Z,35.10
2018-09-04T13:42:37.394Z,31.43
2018-09-04T13:45:05.967Z,33.33
2018-09-04T13:47:35.254Z,29.95
2018-09-04T13:50:03.819Z,33.33
2018-09-04T13:52:32.876Z,37.80
2018-09-04T13:55:01.378Z,32.10
2018-09-04T13:57:30.732Z,33.30
2018-09-04T14:00:00.190Z,36.43
2018-09-04T14:02:28.698Z,29.75
2018-09-04T14:04:57.719Z,31.43
2018-09-04T14:07:26.227Z,39.23
2018-09-04T14:09:54.742Z,35.03
2018-09-04T14:12:23.585Z,33.74
2018-09-04T14:14:52.421Z,32.27
2018-09-04T14:17:21.250Z,30.77
2018-09-04T14:19:51.138Z,36.10
2018-09-04T14:22:19.674Z,34.85
2018-09-04T14:24:48.126Z,32.13
2018-09-04T14:27:17.460Z,35.90
2018-09-04T14:29:53.776Z,31.60
2018-09-04T14:37:54.189Z,29.77
2018-09-04T14:40:22.717Z,29.40
2018-09-04T14:42:51.314Z,30.37
2018-09-04T14:45:20.179Z,31.80
2018-09-04T14:47:48.703Z,29.27
2018-09-04T14:50:17.434Z,30.93
2018-09-04T14:52:45.972Z,29.40
2018-09-04T15:00:10.758Z,29.53
2018-09-04T15:02:39.257Z,29.50
2018-09-04T15:05:07.749Z,28.20
2018-09-04T15:07:36.279Z,26.10
2018-09-04T15:10:05.812Z,25.80
2018-09-04T15:12:34.314Z,26.82
2018-09-04T15:15:03.018Z,26.47
2018-09-04T15:17:31.534Z,25.53
2018-09-04T15:20:00.627Z,29.70
2018-09-04T15:22:29.236Z,24.18
2018-09-04T15:24:57.750Z,28.33
2018-09-04T15:27:26.261Z,32.07
2018-09-04T15:29:54.784Z,29.83
2018-09-04T15:32:23.266Z,32.23
2018-09-04T15:34:52.291Z,32.97
2018-09-04T15:37:20.884Z,33.05
2018-09-04T15:39:49.358Z,33.43
2018-09-04T15:42:17.863Z,32.60
2018-09-04T15:44:46.822Z,32.17
2018-09-04T15:52:14.130Z,41.40
2018-09-04T15:54:42.690Z,42.03
2018-09-04T15:57:11.629Z,52.17
2018-09-04T15:59:40.211Z,44.77
2018-09-04T16:02:08.785Z,40.20
2018-09-04T16:04:37.294Z,45.90
2018-09-04T16:07:06.562Z,45.87
2018-09-04T16:09:35.163Z,45.33
2018-09-04T16:12:03.602Z,41.97
2018-09-04T16:14:32.126Z,42.60
2018-09-04T16:17:00.676Z,38.33
2018-09-04T16:19:29.174Z,42.13
2018-09-04T16:21:58.585Z,38.10
2018-09-04T16:24:27.090Z,38.50
2018-09-04T16:26:55.593Z,41.93
2018-09-04T16:29:24.694Z,42.70
2018-09-04T16:31:53.355Z,40.57
2018-09-04T16:34:21.980Z,35.80
2018-09-04T16:36:51.175Z,35.45
2018-09-04T16:39:19.964Z,37.20
2018-09-04T16:41:48.499Z,42.40
2018-09-04T16:44:17.950Z,40.43
2018-09-04T16:46:46.502Z,39.30
2018-09-04T16:54:15.465Z,46.20
2018-09-04T16:56:43.961Z,41.10
2018-09-04T16:59:12.494Z,40.70
2018-09-04T17:01:41.017Z,46.80
2018-09-04T17:04:09.578Z,43.20
2018-09-04T17:06:38.497Z,40.27
2018-09-04T17:09:07.453Z,36.43
2018-09-04T17:11:36.319Z,43.37
2018-09-04T17:14:04.997Z,40.53
2018-09-04T17:16:34.290Z,37.90
2018-09-04T17:19:02.770Z,41.13
2018-09-04T17:21:31.259Z,47.08
2018-09-04T17:24:00.384Z,43.53
2018-09-04T17:26:28.954Z,44.38
2018-09-04T17:28:57.503Z,43.90
2018-09-04T17:31:26.026Z,46.83
2018-09-04T17:33:54.563Z,49.07
2018-09-04T17:36:23.026Z,49.75
2018-09-04T17:38:52.158Z,49.87
2018-09-04T17:41:20.685Z,44.45
2018-09-04T17:43:49.243Z,51.33
2018-09-04T17:46:18.578Z,46.40
2018-09-04T17:48:47.071Z,50.50
2018-09-04T17:51:17.409Z,58.45
2018-09-04T17:53:45.949Z,59.27
2018-09-04T18:01:15.133Z,64.40
2018-09-04T18:03:44.036Z,67.03
2018-09-04T18:06:12.553Z,57.08
2018-09-04T18:08:41.078Z,61.77
2018-09-04T18:11:09.607Z,70.90
2018-09-04T18:13:38.173Z,65.43
2018-09-04T18:16:06.706Z,61.83
2018-09-04T18:18:35.226Z,75.00
2018-09-04T18:21:03.726Z,74.97
2018-09-04T18:23:32.760Z,82.27
2018-09-04T18:26:02.243Z,74.40
2018-09-04T18:28:30.719Z,61.03
2018-09-04T18:30:59.257Z,54.63
2018-09-04T18:33:27.746Z,85.53
2018-09-04T18:35:56.506Z,80.27
2018-09-04T18:38:25.116Z,66.97
2018-09-04T18:40:53.626Z,77.53
2018-09-04T18:43:22.115Z,73.17
2018-09-04T18:45:53.906Z,69.70
2018-09-04T18:48:22.410Z,70.50
2018-09-04T18:50:50.910Z,94.93
2018-09-04T18:53:19.421Z,83.52
2018-09-04T18:55:47.965Z,89.63
2018-09-04T18:58:17.383Z,89.70
2018-09-04T19:00:46.473Z,82.00
2018-09-04T19:08:15.134Z,77.10
2018-09-04T19:10:43.798Z,83.47
2018-09-04T19:13:12.298Z,86.90
2018-09-04T19:15:40.845Z,65.57
2018-09-04T19:18:09.334Z,66.83
2018-09-04T19:20:37.830Z,74.90
2018-09-04T19:23:06.389Z,75.00
2018-09-04T19:25:34.905Z,73.50
2018-09-04T19:28:04.261Z,58.03
2018-09-04T19:30:33.115Z,61.43
2018-09-04T19:33:01.863Z,65.10
2018-09-04T19:35:30.383Z,67.40
2018-09-04T19:37:58.902Z,55.77
2018-09-04T19:40:27.598Z,63.47
2018-09-04T19:42:56.098Z,61.80
2018-09-04T19:45:24.699Z,46.83
2018-09-04T19:47:53.191Z,51.70
2018-09-04T19:50:21.745Z,46.37
2018-09-04T19:52:51.260Z,45.63
2018-09-04T19:55:19.793Z,45.27
2018-09-04T19:57:48.245Z,39.60
2018-09-04T20:00:19.014Z,46.83
2018-09-04T20:02:47.944Z,41.90
2018-09-04T20:10:11.938Z,34.80
2018-09-04T20:12:40.437Z,36.40
2018-09-04T20:15:09.541Z,35.80
2018-09-04T20:17:38.059Z,36.43
2018-09-04T20:20:06.836Z,35.05
2018-09-04T20:22:35.358Z,40.27
2018-09-04T20:25:03.877Z,35.97
2018-09-04T20:27:32.397Z,37.00
2018-09-04T20:30:01.640Z,36.50
2018-09-04T20:32:30.752Z,34.37
2018-09-04T20:34:59.209Z,33.70
2018-09-04T20:37:27.754Z,38.60
2018-09-04T20:39:56.279Z,36.00
2018-09-04T20:42:24.822Z,37.77
2018-09-04T20:44:53.434Z,34.50
2018-09-04T20:47:23.196Z,32.93
2018-09-04T20:49:51.686Z,34.47
2018-09-04T20:52:20.189Z,34.03
2018-09-04T20:54:48.877Z,32.53
2018-09-04T20:57:28.354Z,31.10
2018-09-04T21:00:09.340Z,34.23
2018-09-04T21:02:49.180Z,37.87
2018-09-04T21:05:29.266Z,36.97
2018-09-04T21:08:11.148Z,35.27
2018-09-04T21:10:40.586Z,31.70
2018-09-04T21:13:09.511Z,37.63
2018-09-04T21:15:38.006Z,30.70
2018-09-04T21:18:06.612Z,35.85
2018-09-04T21:20:35.093Z,38.33
2018-09-04T21:23:03.761Z,36.07
2018-09-04T21:25:32.296Z,34.90
2018-09-04T21:28:01.257Z,37.40
2018-09-04T21:30:30.761Z,28.90
2018-09-04T21:32:59.778Z,32.80
2018-09-04T21:35:28.303Z,32.20
2018-09-04T21:37:56.847Z,31.20
2018-09-04T21:40:25.442Z,38.10
2018-09-04T21:42:53.933Z,34.57
2018-09-04T21:45:22.412Z,34.35
2018-09-04T21:47:51.034Z,35.90
2018-09-04T21:50:19.487Z,38.90
2018-09-04T21:52:48.025Z,37.27
2018-09-04T21:55:18.390Z,33.57
2018-09-04T21:57:46.859Z,36.70
2018-09-04T22:05:11.250Z,40.23
2018-09-04T22:07:39.763Z,37.40
2018-09-04T22:10:08.392Z,35.13
2018-09-04T22:12:37.537Z,36.60
2018-09-04T22:15:06.074Z,38.93
2018-09-04T22:17:34.598Z,42.17
2018-09-04T22:20:03.129Z,38.60
2018-09-04T22:22:31.638Z,43.30
2018-09-04T22:25:00.178Z,37.67
2018-09-04T22:27:28.728Z,43.20
2018-09-04T22:29:57.259Z,33.73
2018-09-04T22:32:26.680Z,34.98
2018-09-04T22:34:55.793Z,28.10
2018-09-04T22:37:24.278Z,36.03
2018-09-04T22:39:52.802Z,37.80
2018-09-04T22:42:21.349Z,34.80
2018-09-04T22:44:49.874Z,37.80
2018-09-04T22:47:18.362Z,32.90
2018-09-04T22:49:52.152Z,34.73
2018-09-04T22:52:24.842Z,36.93
2018-09-04T22:54:57.365Z,37.30
2018-09-04T22:57:25.890Z,33.13
2018-09-04T22:59:54.393Z,31.50
2018-09-04T23:02:23.670Z,39.87
2018-09-04T23:04:52.219Z,35.80
2018-09-04T23:07:20.710Z,35.00
2018-09-04T23:09:49.261Z,44.17
2018-09-04T23:12:17.798Z,41.83
2018-09-04T23:14:46.611Z,36.23
2018-09-04T23:23:33.378Z,35.97
2018-09-04T23:26:01.885Z,37.60
2018-09-04T23:28:30.415Z,38.23
2018-09-04T23:30:59.002Z,34.30
2018-09-04T23:33:28.805Z,38.53
2018-09-04T23:35:57.357Z,36.17
2018-09-04T23:38:25.889Z,31.67
2018-09-04T23:40:54.394Z,33.53
2018-09-04T23:43:22.930Z,30.27
2018-09-04T23:45:51.951Z,32.78
2018-09-04T23:48:20.429Z,27.13
2018-09-04T23:50:48.934Z,34.03
2018-09-04T23:53:18.734Z,30.74
2018-09-04T23:55:47.764Z,32.90
2018-09-04T23:58:17.347Z,32.10
